sensor_id;sensor_type;location;lat;lon;timestamp;pressure;altitude;pressure_sealevel;temperature;humidity
71889;BME280;59762;49.998;14.858;2023-07-16T00:01:03;96757.16;;;24.01;63.77
71889;BME280;59762;49.998;14.858;2023-07-16T00:03:49;96765.97;;;23.87;64.56
71889;BME280;59762;49.998;14.858;2023-07-16T00:06:14;96769.78;;;23.86;64.60
71889;BME280;59762;49.998;14.858;2023-07-16T00:08:40;96767.28;;;23.84;64.45
71889;BME280;59762;49.998;14.858;2023-07-16T00:11:05;96764.41;;;23.69;65.21
71889;BME280;59762;49.998;14.858;2023-07-16T00:13:31;96769.50;;;23.61;65.70
71889;BME280;59762;49.998;14.858;2023-07-16T00:15:57;96768.50;;;23.67;65.26
71889;BME280;59762;49.998;14.858;2023-07-16T00:18:23;96767.78;;;23.55;65.88
71889;BME280;59762;49.998;14.858;2023-07-16T00:20:48;96768.59;;;23.55;66.06
71889;BME280;59762;49.998;14.858;2023-07-16T00:23:14;96770.53;;;23.55;66.15
71889;BME280;59762;49.998;14.858;2023-07-16T00:25:39;96774.13;;;23.39;66.83
71889;BME280;59762;49.998;14.858;2023-07-16T00:28:05;96762.16;;;23.40;66.70
71889;BME280;59762;49.998;14.858;2023-07-16T00:30:30;96773.03;;;23.40;66.74
71889;BME280;59762;49.998;14.858;2023-07-16T00:32:56;96762.88;;;23.30;67.14
71889;BME280;59762;49.998;14.858;2023-07-16T00:35:22;96768.50;;;23.07;68.39
71889;BME280;59762;49.998;14.858;2023-07-16T00:37:48;96754.44;;;22.94;68.67
71889;BME280;59762;49.998;14.858;2023-07-16T00:40:13;96745.56;;;22.82;69.16
71889;BME280;59762;49.998;14.858;2023-07-16T00:42:39;96751.66;;;22.89;69.25
71889;BME280;59762;49.998;14.858;2023-07-16T00:45:09;96743.31;;;22.79;69.70
71889;BME280;59762;49.998;14.858;2023-07-16T00:47:36;96734.38;;;22.78;69.96
71889;BME280;59762;49.998;14.858;2023-07-16T00:50:02;96741.44;;;22.79;69.89
71889;BME280;59762;49.998;14.858;2023-07-16T00:52:28;96740.44;;;22.85;69.90
71889;BME280;59762;49.998;14.858;2023-07-16T00:54:54;96750.03;;;22.71;70.42
71889;BME280;59762;49.998;14.858;2023-07-16T00:57:20;96742.53;;;22.78;70.38
71889;BME280;59762;49.998;14.858;2023-07-16T00:59:45;96740.84;;;22.77;70.33
71889;BME280;59762;49.998;14.858;2023-07-16T01:02:11;96741.88;;;22.71;70.51
71889;BME280;59762;49.998;14.858;2023-07-16T01:04:37;96740.72;;;22.67;71.20
71889;BME280;59762;49.998;14.858;2023-07-16T01:07:06;96737.94;;;22.62;71.49
71889;BME280;59762;49.998;14.858;2023-07-16T01:09:34;96743.97;;;22.48;72.08
71889;BME280;59762;49.998;14.858;2023-07-16T01:12:03;96749.31;;;22.59;72.05
71889;BME280;59762;49.998;14.858;2023-07-16T01:14:30;96758.97;;;22.67;71.83
71889;BME280;59762;49.998;14.858;2023-07-16T01:16:56;96765.13;;;22.62;72.29
71889;BME280;59762;49.998;14.858;2023-07-16T01:19:25;96773.31;;;22.62;71.60
71889;BME280;59762;49.998;14.858;2023-07-16T01:30:19;96816.53;;;22.59;72.03
71889;BME280;59762;49.998;14.858;2023-07-16T01:32:46;96880.75;;;22.32;72.99
71889;BME280;59762;49.998;14.858;2023-07-16T01:35:13;96907.94;;;22.32;74.32
71889;BME280;59762;49.998;14.858;2023-07-16T01:37:41;96873.75;;;22.47;73.53
71889;BME280;59762;49.998;14.858;2023-07-16T01:40:07;96832.25;;;22.12;75.01
71889;BME280;59762;49.998;14.858;2023-07-16T01:42:37;96878.19;;;22.25;75.01
71889;BME280;59762;49.998;14.858;2023-07-16T01:45:03;96959.63;;;22.32;74.35
71889;BME280;59762;49.998;14.858;2023-07-16T01:49:55;96827.72;;;22.46;71.70
71889;BME280;59762;49.998;14.858;2023-07-16T01:52:21;96909.34;;;22.46;71.71
71889;BME280;59762;49.998;14.858;2023-07-16T01:54:47;96958.91;;;22.48;71.07
71889;BME280;59762;49.998;14.858;2023-07-16T01:57:13;96917.22;;;22.59;70.12
71889;BME280;59762;49.998;14.858;2023-07-16T01:59:39;96860.66;;;22.33;70.88
71889;BME280;59762;49.998;14.858;2023-07-16T02:02:04;96886.88;;;22.39;70.18
71889;BME280;59762;49.998;14.858;2023-07-16T02:04:30;96927.75;;;22.44;69.78
71889;BME280;59762;49.998;14.858;2023-07-16T02:06:56;96920.00;;;22.47;70.20
71889;BME280;59762;49.998;14.858;2023-07-16T02:09:21;96889.75;;;22.32;70.93
71889;BME280;59762;49.998;14.858;2023-07-16T02:11:47;96915.16;;;22.38;69.54
71889;BME280;59762;49.998;14.858;2023-07-16T02:14:13;96929.06;;;22.53;67.84
71889;BME280;59762;49.998;14.858;2023-07-16T02:16:40;96926.34;;;22.53;67.98
71889;BME280;59762;49.998;14.858;2023-07-16T02:19:05;96940.94;;;22.63;65.82
71889;BME280;59762;49.998;14.858;2023-07-16T02:21:31;96945.91;;;22.66;65.65
71889;BME280;59762;49.998;14.858;2023-07-16T02:23:56;96947.88;;;22.71;64.60
71889;BME280;59762;49.998;14.858;2023-07-16T02:26:22;96950.50;;;22.66;64.24
71889;BME280;59762;49.998;14.858;2023-07-16T02:28:48;96955.00;;;22.72;63.36
71889;BME280;59762;49.998;14.858;2023-07-16T02:31:14;96957.72;;;22.72;62.89
71889;BME280;59762;49.998;14.858;2023-07-16T02:33:39;96967.69;;;22.66;63.07
71889;BME280;59762;49.998;14.858;2023-07-16T02:36:05;96958.59;;;22.61;62.89
71889;BME280;59762;49.998;14.858;2023-07-16T02:38:31;96954.41;;;22.70;62.03
71889;BME280;59762;49.998;14.858;2023-07-16T02:40:57;96953.47;;;22.64;62.12
71889;BME280;59762;49.998;14.858;2023-07-16T02:43:23;96972.19;;;22.61;62.04
71889;BME280;59762;49.998;14.858;2023-07-16T02:45:48;96981.59;;;22.53;62.44
71889;BME280;59762;49.998;14.858;2023-07-16T02:48:14;96999.09;;;22.57;61.67
71889;BME280;59762;49.998;14.858;2023-07-16T02:50:40;97000.72;;;22.58;61.44
71889;BME280;59762;49.998;14.858;2023-07-16T02:53:06;97012.59;;;22.52;61.84
71889;BME280;59762;49.998;14.858;2023-07-16T02:55:34;97022.63;;;22.52;62.05
71889;BME280;59762;49.998;14.858;2023-07-16T02:57:59;97027.34;;;22.45;61.98
71889;BME280;59762;49.998;14.858;2023-07-16T03:00:32;97032.22;;;22.43;62.03
71889;BME280;59762;49.998;14.858;2023-07-16T03:02:58;97034.50;;;22.46;61.96
71889;BME280;59762;49.998;14.858;2023-07-16T03:05:25;97034.63;;;22.39;61.88
71889;BME280;59762;49.998;14.858;2023-07-16T03:07:51;97038.75;;;22.42;62.02
71889;BME280;59762;49.998;14.858;2023-07-16T03:10:17;97045.03;;;22.31;62.27
71889;BME280;59762;49.998;14.858;2023-07-16T03:12:42;97042.44;;;22.47;61.73
71889;BME280;59762;49.998;14.858;2023-07-16T03:15:09;97036.16;;;22.47;61.64
71889;BME280;59762;49.998;14.858;2023-07-16T03:17:34;97044.50;;;22.57;61.24
71889;BME280;59762;49.998;14.858;2023-07-16T03:20:00;97049.84;;;22.52;61.47
71889;BME280;59762;49.998;14.858;2023-07-16T03:22:26;97052.34;;;22.53;61.40
71889;BME280;59762;49.998;14.858;2023-07-16T03:24:52;97047.91;;;22.64;60.98
71889;BME280;59762;49.998;14.858;2023-07-16T03:27:17;97046.28;;;22.63;61.36
71889;BME280;59762;49.998;14.858;2023-07-16T03:29:43;97053.28;;;22.59;61.67
71889;BME280;59762;49.998;14.858;2023-07-16T03:32:08;97062.59;;;22.63;61.28
71889;BME280;59762;49.998;14.858;2023-07-16T03:34:34;97066.50;;;22.67;61.35
71889;BME280;59762;49.998;14.858;2023-07-16T03:37:00;97071.25;;;22.60;61.46
71889;BME280;59762;49.998;14.858;2023-07-16T03:39:26;97087.91;;;22.63;61.55
71889;BME280;59762;49.998;14.858;2023-07-16T03:41:51;97088.88;;;22.57;61.85
71889;BME280;59762;49.998;14.858;2023-07-16T03:44:17;97103.44;;;22.51;62.41
71889;BME280;59762;49.998;14.858;2023-07-16T03:46:42;97115.38;;;22.50;62.56
71889;BME280;59762;49.998;14.858;2023-07-16T03:49:08;97111.88;;;22.50;62.79
71889;BME280;59762;49.998;14.858;2023-07-16T03:51:34;97107.09;;;22.57;62.39
71889;BME280;59762;49.998;14.858;2023-07-16T03:54:00;97103.44;;;22.63;62.29
71889;BME280;59762;49.998;14.858;2023-07-16T03:56:26;97123.06;;;22.65;62.36
71889;BME280;59762;49.998;14.858;2023-07-16T03:58:51;97134.41;;;22.73;62.14
71889;BME280;59762;49.998;14.858;2023-07-16T04:01:17;97160.72;;;22.56;62.71
71889;BME280;59762;49.998;14.858;2023-07-16T04:03:43;97161.19;;;22.53;62.98
71889;BME280;59762;49.998;14.858;2023-07-16T04:06:09;97170.88;;;22.49;63.14
71889;BME280;59762;49.998;14.858;2023-07-16T04:08:35;97165.53;;;22.43;62.82
71889;BME280;59762;49.998;14.858;2023-07-16T04:11:03;97163.19;;;22.97;61.81
71889;BME280;59762;49.998;14.858;2023-07-16T04:13:29;97169.94;;;22.95;61.71
71889;BME280;59762;49.998;14.858;2023-07-16T04:15:55;97171.88;;;23.50;60.16
71889;BME280;59762;49.998;14.858;2023-07-16T04:18:23;97176.38;;;22.77;62.08
71889;BME280;59762;49.998;14.858;2023-07-16T04:20:49;97184.41;;;22.84;62.18
71889;BME280;59762;49.998;14.858;2023-07-16T04:23:15;97192.41;;;23.13;61.06
71889;BME280;59762;49.998;14.858;2023-07-16T04:25:40;97202.22;;;23.70;59.54
71889;BME280;59762;49.998;14.858;2023-07-16T04:28:06;97225.81;;;24.42;57.51
71889;BME280;59762;49.998;14.858;2023-07-16T04:30:32;97235.97;;;23.81;59.05
71889;BME280;59762;49.998;14.858;2023-07-16T04:32:57;97233.56;;;23.28;60.94
71889;BME280;59762;49.998;14.858;2023-07-16T04:35:23;97236.38;;;22.94;62.18
71889;BME280;59762;49.998;14.858;2023-07-16T04:37:49;97242.72;;;23.11;61.80
71889;BME280;59762;49.998;14.858;2023-07-16T04:40:14;97261.59;;;22.89;62.68
71889;BME280;59762;49.998;14.858;2023-07-16T04:42:40;97269.53;;;22.79;62.92
71889;BME280;59762;49.998;14.858;2023-07-16T04:45:06;97276.97;;;22.84;63.14
71889;BME280;59762;49.998;14.858;2023-07-16T04:47:32;97282.81;;;22.76;63.46
71889;BME280;59762;49.998;14.858;2023-07-16T04:49:58;97286.94;;;22.90;63.08
71889;BME280;59762;49.998;14.858;2023-07-16T04:52:24;97284.81;;;22.80;63.48
71889;BME280;59762;49.998;14.858;2023-07-16T04:54:50;97304.56;;;22.64;64.30
71889;BME280;59762;49.998;14.858;2023-07-16T04:57:16;97308.34;;;22.63;64.60
71889;BME280;59762;49.998;14.858;2023-07-16T04:59:41;97315.63;;;22.40;65.97
71889;BME280;59762;49.998;14.858;2023-07-16T05:02:07;97318.22;;;22.35;66.54
71889;BME280;59762;49.998;14.858;2023-07-16T05:04:33;97318.44;;;22.22;67.79
71889;BME280;59762;49.998;14.858;2023-07-16T05:07:01;97323.56;;;21.89;69.48
71889;BME280;59762;49.998;14.858;2023-07-16T05:09:27;97334.75;;;21.81;70.62
71889;BME280;59762;49.998;14.858;2023-07-16T05:11:53;97335.94;;;21.67;71.46
71889;BME280;59762;49.998;14.858;2023-07-16T05:14:19;97351.06;;;21.45;73.66
71889;BME280;59762;49.998;14.858;2023-07-16T05:16:44;97358.66;;;21.25;75.82
71889;BME280;59762;49.998;14.858;2023-07-16T05:19:10;97362.94;;;20.96;78.66
71889;BME280;59762;49.998;14.858;2023-07-16T05:21:36;97383.00;;;20.39;84.22
71889;BME280;59762;49.998;14.858;2023-07-16T05:24:02;97371.78;;;19.67;91.03
71889;BME280;59762;49.998;14.858;2023-07-16T05:26:28;97370.56;;;19.57;95.05
71889;BME280;59762;49.998;14.858;2023-07-16T05:28:54;97381.72;;;19.29;96.74
71889;BME280;59762;49.998;14.858;2023-07-16T05:31:19;97388.78;;;19.37;97.02
71889;BME280;59762;49.998;14.858;2023-07-16T05:33:45;97366.41;;;19.61;96.66
71889;BME280;59762;49.998;14.858;2023-07-16T05:36:11;97361.38;;;19.64;96.44
71889;BME280;59762;49.998;14.858;2023-07-16T05:38:36;97353.66;;;19.61;98.54
71889;BME280;59762;49.998;14.858;2023-07-16T05:41:03;97359.25;;;19.66;98.92
71889;BME280;59762;49.998;14.858;2023-07-16T05:43:29;97352.00;;;19.60;100.00
71889;BME280;59762;49.998;14.858;2023-07-16T05:45:55;97334.41;;;19.76;98.12
71889;BME280;59762;49.998;14.858;2023-07-16T05:48:20;97325.91;;;19.72;100.00
71889;BME280;59762;49.998;14.858;2023-07-16T05:50:46;97315.91;;;19.66;100.00
71889;BME280;59762;49.998;14.858;2023-07-16T05:53:11;97302.69;;;19.52;100.00
71889;BME280;59762;49.998;14.858;2023-07-16T05:55:40;97293.69;;;19.58;100.00
71889;BME280;59762;49.998;14.858;2023-07-16T05:58:05;97287.38;;;19.64;100.00
71889;BME280;59762;49.998;14.858;2023-07-16T06:00:31;97294.25;;;19.66;100.00
71889;BME280;59762;49.998;14.858;2023-07-16T06:02:58;97299.56;;;19.79;100.00
71889;BME280;59762;49.998;14.858;2023-07-16T06:05:24;97301.59;;;19.90;100.00
71889;BME280;59762;49.998;14.858;2023-07-16T06:07:52;97313.41;;;20.02;99.09
71889;BME280;59762;49.998;14.858;2023-07-16T06:10:18;97306.06;;;19.78;100.00
71889;BME280;59762;49.998;14.858;2023-07-16T06:12:43;97295.44;;;19.77;100.00
71889;BME280;59762;49.998;14.858;2023-07-16T06:15:09;97282.34;;;19.74;100.00
71889;BME280;59762;49.998;14.858;2023-07-16T06:17:35;97308.59;;;19.73;100.00
71889;BME280;59762;49.998;14.858;2023-07-16T06:20:02;97315.78;;;19.55;100.00
71889;BME280;59762;49.998;14.858;2023-07-16T06:22:28;97327.44;;;19.55;100.00
71889;BME280;59762;49.998;14.858;2023-07-16T06:24:53;97306.91;;;19.41;100.00
71889;BME280;59762;49.998;14.858;2023-07-16T06:27:19;97304.81;;;19.43;100.00
71889;BME280;59762;49.998;14.858;2023-07-16T06:29:45;97292.63;;;19.59;100.00
71889;BME280;59762;49.998;14.858;2023-07-16T06:32:10;97292.41;;;19.60;100.00
71889;BME280;59762;49.998;14.858;2023-07-16T06:34:36;97309.50;;;19.61;100.00
71889;BME280;59762;49.998;14.858;2023-07-16T06:37:02;97301.13;;;19.62;100.00
71889;BME280;59762;49.998;14.858;2023-07-16T06:39:27;97281.59;;;19.60;100.00
71889;BME280;59762;49.998;14.858;2023-07-16T06:41:53;97269.25;;;19.64;100.00
71889;BME280;59762;49.998;14.858;2023-07-16T06:44:19;97262.09;;;19.76;100.00
71889;BME280;59762;49.998;14.858;2023-07-16T06:46:44;97277.25;;;20.15;100.00
71889;BME280;59762;49.998;14.858;2023-07-16T06:49:10;97294.13;;;20.41;100.00
71889;BME280;59762;49.998;14.858;2023-07-16T06:51:36;97283.91;;;20.61;100.00
71889;BME280;59762;49.998;14.858;2023-07-16T06:54:01;97272.47;;;20.77;100.00
71889;BME280;59762;49.998;14.858;2023-07-16T06:56:27;97271.94;;;20.69;100.00
71889;BME280;59762;49.998;14.858;2023-07-16T06:58:53;97289.75;;;20.83;100.00
71889;BME280;59762;49.998;14.858;2023-07-16T07:01:18;97316.56;;;21.16;98.04
71889;BME280;59762;49.998;14.858;2023-07-16T07:03:44;97312.47;;;21.25;98.71
71889;BME280;59762;49.998;14.858;2023-07-16T07:06:09;97323.03;;;21.14;98.48
71889;BME280;59762;49.998;14.858;2023-07-16T07:08:37;97325.59;;;21.27;98.66
71889;BME280;59762;49.998;14.858;2023-07-16T07:11:04;97329.44;;;21.20;98.23
71889;BME280;59762;49.998;14.858;2023-07-16T07:13:30;97319.41;;;21.39;99.76
71889;BME280;59762;49.998;14.858;2023-07-16T07:15:56;97315.38;;;21.59;97.27
71889;BME280;59762;49.998;14.858;2023-07-16T07:18:22;97317.03;;;21.78;98.40
71889;BME280;59762;49.998;14.858;2023-07-16T07:20:47;97321.91;;;21.99;98.68
71889;BME280;59762;49.998;14.858;2023-07-16T07:23:16;97325.50;;;22.11;95.70
71889;BME280;59762;49.998;14.858;2023-07-16T07:25:41;97332.28;;;22.20;97.56
71889;BME280;59762;49.998;14.858;2023-07-16T07:28:07;97329.44;;;22.27;95.94
71889;BME280;59762;49.998;14.858;2023-07-16T07:30:33;97339.44;;;22.44;92.96
71889;BME280;59762;49.998;14.858;2023-07-16T07:32:58;97343.03;;;22.79;95.96
71889;BME280;59762;49.998;14.858;2023-07-16T07:35:24;97342.84;;;22.40;93.07
71889;BME280;59762;49.998;14.858;2023-07-16T07:37:50;97344.34;;;22.65;94.27
71889;BME280;59762;49.998;14.858;2023-07-16T07:40:15;97345.13;;;23.46;91.84
71889;BME280;59762;49.998;14.858;2023-07-16T07:42:41;97354.31;;;24.24;86.77
71889;BME280;59762;49.998;14.858;2023-07-16T07:47:33;97340.81;;;22.99;91.34
71889;BME280;59762;49.998;14.858;2023-07-16T07:49:58;97361.03;;;22.92;92.38
71889;BME280;59762;49.998;14.858;2023-07-16T07:52:27;97368.50;;;22.73;92.36
71889;BME280;59762;49.998;14.858;2023-07-16T07:54:53;97375.59;;;22.86;91.60
71889;BME280;59762;49.998;14.858;2023-07-16T07:57:19;97381.03;;;22.86;91.27
71889;BME280;59762;49.998;14.858;2023-07-16T07:59:45;97374.63;;;22.92;89.13
71889;BME280;59762;49.998;14.858;2023-07-16T08:02:11;97380.81;;;22.87;90.29
71889;BME280;59762;49.998;14.858;2023-07-16T08:04:37;97380.66;;;22.71;91.87
71889;BME280;59762;49.998;14.858;2023-07-16T08:07:02;97389.31;;;22.56;91.63
71889;BME280;59762;49.998;14.858;2023-07-16T08:09:28;97395.13;;;22.30;91.99
71889;BME280;59762;49.998;14.858;2023-07-16T08:11:54;97390.69;;;22.18;92.67
71889;BME280;59762;49.998;14.858;2023-07-16T08:14:19;97391.16;;;22.15;92.15
71889;BME280;59762;49.998;14.858;2023-07-16T08:16:45;97394.81;;;22.20;93.08
71889;BME280;59762;49.998;14.858;2023-07-16T08:19:11;97398.41;;;22.32;91.88
71889;BME280;59762;49.998;14.858;2023-07-16T08:21:37;97396.97;;;22.18;92.54
71889;BME280;59762;49.998;14.858;2023-07-16T08:24:05;97394.25;;;21.89;94.11
71889;BME280;59762;49.998;14.858;2023-07-16T08:26:32;97403.00;;;21.91;94.50
71889;BME280;59762;49.998;14.858;2023-07-16T08:28:57;97403.75;;;21.80;94.48
71889;BME280;59762;49.998;14.858;2023-07-16T08:31:23;97406.25;;;21.81;94.47
71889;BME280;59762;49.998;14.858;2023-07-16T08:33:48;97407.75;;;21.95;92.53
71889;BME280;59762;49.998;14.858;2023-07-16T08:36:14;97408.53;;;22.14;92.83
71889;BME280;59762;49.998;14.858;2023-07-16T08:38:40;97405.38;;;22.28;92.57
71889;BME280;59762;49.998;14.858;2023-07-16T08:41:06;97406.28;;;22.11;91.87
71889;BME280;59762;49.998;14.858;2023-07-16T08:43:33;97405.66;;;22.09;92.86
71889;BME280;59762;49.998;14.858;2023-07-16T08:46:01;97408.38;;;22.09;92.63
71889;BME280;59762;49.998;14.858;2023-07-16T08:48:28;97410.03;;;22.10;92.49
71889;BME280;59762;49.998;14.858;2023-07-16T08:50:55;97411.28;;;21.96;93.08
71889;BME280;59762;49.998;14.858;2023-07-16T08:53:22;97422.06;;;22.02;92.12
71889;BME280;59762;49.998;14.858;2023-07-16T08:55:48;97410.09;;;21.92;93.36
71889;BME280;59762;49.998;14.858;2023-07-16T08:58:14;97418.63;;;21.95;94.07
71889;BME280;59762;49.998;14.858;2023-07-16T09:00:43;97417.66;;;21.90;94.74
71889;BME280;59762;49.998;14.858;2023-07-16T09:03:11;97428.28;;;21.73;92.71
71889;BME280;59762;49.998;14.858;2023-07-16T09:05:39;97427.53;;;21.66;92.40
71889;BME280;59762;49.998;14.858;2023-07-16T09:08:04;97432.19;;;21.59;92.44
71889;BME280;59762;49.998;14.858;2023-07-16T09:10:31;97437.84;;;21.82;92.79
71889;BME280;59762;49.998;14.858;2023-07-16T09:12:58;97428.31;;;21.91;89.52
71889;BME280;59762;49.998;14.858;2023-07-16T09:15:24;97435.72;;;22.14;90.41
71889;BME280;59762;49.998;14.858;2023-07-16T09:17:50;97440.34;;;22.43;86.31
71889;BME280;59762;49.998;14.858;2023-07-16T09:20:16;97439.69;;;22.47;87.76
71889;BME280;59762;49.998;14.858;2023-07-16T09:22:43;97442.69;;;22.69;84.65
71889;BME280;59762;49.998;14.858;2023-07-16T09:25:09;97443.50;;;22.40;87.15
71889;BME280;59762;49.998;14.858;2023-07-16T09:27:35;97448.88;;;22.46;86.82
71889;BME280;59762;49.998;14.858;2023-07-16T09:30:00;97450.59;;;22.59;86.41
71889;BME280;59762;49.998;14.858;2023-07-16T09:32:36;97452.38;;;22.65;86.42
71889;BME280;59762;49.998;14.858;2023-07-16T09:35:13;97454.16;;;22.71;85.20
71889;BME280;59762;49.998;14.858;2023-07-16T09:37:39;97455.84;;;22.72;85.43
71889;BME280;59762;49.998;14.858;2023-07-16T09:40:06;97447.56;;;22.78;86.08
71889;BME280;59762;49.998;14.858;2023-07-16T09:42:37;97448.91;;;23.10;83.85
71889;BME280;59762;49.998;14.858;2023-07-16T09:45:06;97458.16;;;23.44;82.37
71889;BME280;59762;49.998;14.858;2023-07-16T09:47:32;97461.13;;;23.42;78.57
71889;BME280;59762;49.998;14.858;2023-07-16T09:49:58;97474.84;;;23.13;80.12
71889;BME280;59762;49.998;14.858;2023-07-16T09:52:26;97469.03;;;23.09;76.46
71889;BME280;59762;49.998;14.858;2023-07-16T09:54:55;97466.81;;;23.29;74.15
71889;BME280;59762;49.998;14.858;2023-07-16T09:57:26;97473.88;;;23.19;74.71
71889;BME280;59762;49.998;14.858;2023-07-16T09:59:53;97479.28;;;23.48;74.04
71889;BME280;59762;49.998;14.858;2023-07-16T10:02:20;97474.69;;;22.96;73.49
71889;BME280;59762;49.998;14.858;2023-07-16T10:04:46;97484.47;;;23.61;73.00
71889;BME280;59762;49.998;14.858;2023-07-16T10:07:23;97478.78;;;23.74;73.37
71889;BME280;59762;49.998;14.858;2023-07-16T10:12:20;97501.53;;;23.34;70.76
71889;BME280;59762;49.998;14.858;2023-07-16T10:14:47;97485.41;;;23.32;69.59
71889;BME280;59762;49.998;14.858;2023-07-16T10:17:23;97485.91;;;24.26;70.67
71889;BME280;59762;49.998;14.858;2023-07-16T10:27:46;97477.16;;;24.52;64.86
71889;BME280;59762;49.998;14.858;2023-07-16T10:30:12;97477.59;;;24.61;65.60
71889;BME280;59762;49.998;14.858;2023-07-16T10:32:38;97479.00;;;24.63;64.78
71889;BME280;59762;49.998;14.858;2023-07-16T10:35:06;97478.69;;;24.76;64.36
71889;BME280;59762;49.998;14.858;2023-07-16T10:37:34;97477.91;;;25.09;64.22
71889;BME280;59762;49.998;14.858;2023-07-16T10:40:01;97467.03;;;24.64;64.10
71889;BME280;59762;49.998;14.858;2023-07-16T10:42:29;97462.03;;;25.06;63.67
71889;BME280;59762;49.998;14.858;2023-07-16T10:44:58;97465.09;;;25.09;61.99
71889;BME280;59762;49.998;14.858;2023-07-16T10:47:29;97461.91;;;25.01;61.41
71889;BME280;59762;49.998;14.858;2023-07-16T10:49:55;97476.44;;;25.51;62.60
71889;BME280;59762;49.998;14.858;2023-07-16T10:52:22;97477.38;;;26.16;60.52
71889;BME280;59762;49.998;14.858;2023-07-16T10:54:49;97476.56;;;25.61;60.62
71889;BME280;59762;49.998;14.858;2023-07-16T10:57:15;97468.91;;;25.08;62.05
71889;BME280;59762;49.998;14.858;2023-07-16T10:59:42;97474.75;;;24.56;63.37
71889;BME280;59762;49.998;14.858;2023-07-16T11:02:13;97474.25;;;24.87;61.39
71889;BME280;59762;49.998;14.858;2023-07-16T11:04:40;97485.09;;;24.98;63.34
71889;BME280;59762;49.998;14.858;2023-07-16T11:07:07;97489.44;;;24.66;62.70
71889;BME280;59762;49.998;14.858;2023-07-16T11:09:35;97492.34;;;25.37;60.76
71889;BME280;59762;49.998;14.858;2023-07-16T11:12:06;97496.09;;;24.59;60.30
71889;BME280;59762;49.998;14.858;2023-07-16T11:14:33;97497.41;;;24.28;61.91
71889;BME280;59762;49.998;14.858;2023-07-16T11:17:08;97494.09;;;24.54;61.46
71889;BME280;59762;49.998;14.858;2023-07-16T11:19:35;97487.81;;;24.82;60.68
71889;BME280;59762;49.998;14.858;2023-07-16T11:22:02;97497.47;;;25.50;60.02
71889;BME280;59762;49.998;14.858;2023-07-16T11:24:28;97494.09;;;25.43;59.28
71889;BME280;59762;49.998;14.858;2023-07-16T11:26:55;97499.41;;;24.33;61.60
71889;BME280;59762;49.998;14.858;2023-07-16T11:29:23;97508.06;;;24.30;61.64
71889;BME280;59762;49.998;14.858;2023-07-16T11:31:50;97513.97;;;23.87;63.71
71889;BME280;59762;49.998;14.858;2023-07-16T11:34:16;97513.34;;;23.85;63.04
71889;BME280;59762;49.998;14.858;2023-07-16T11:36:42;97513.00;;;24.05;62.78
71889;BME280;59762;49.998;14.858;2023-07-16T11:39:10;97505.25;;;24.25;61.49
71889;BME280;59762;49.998;14.858;2023-07-16T11:41:37;97508.38;;;23.71;63.14
71889;BME280;59762;49.998;14.858;2023-07-16T11:44:04;97501.63;;;23.62;63.15
71889;BME280;59762;49.998;14.858;2023-07-16T11:46:33;97505.91;;;23.81;63.87
71889;BME280;59762;49.998;14.858;2023-07-16T11:49:00;97514.69;;;23.71;62.48
71889;BME280;59762;49.998;14.858;2023-07-16T11:51:26;97512.91;;;23.42;63.05
71889;BME280;59762;49.998;14.858;2023-07-16T11:53:53;97510.78;;;23.33;63.46
71889;BME280;59762;49.998;14.858;2023-07-16T11:56:19;97509.84;;;22.86;63.67
71889;BME280;59762;49.998;14.858;2023-07-16T11:58:45;97513.78;;;23.02;63.29
71889;BME280;59762;49.998;14.858;2023-07-16T12:01:10;97509.50;;;22.53;64.88
71889;BME280;59762;49.998;14.858;2023-07-16T12:03:36;97508.03;;;22.80;64.99
71889;BME280;59762;49.998;14.858;2023-07-16T12:06:02;97510.16;;;22.67;66.12
71889;BME280;59762;49.998;14.858;2023-07-16T12:08:27;97503.13;;;22.41;66.17
71889;BME280;59762;49.998;14.858;2023-07-16T12:10:54;97505.63;;;22.61;66.25
71889;BME280;59762;49.998;14.858;2023-07-16T12:13:20;97498.16;;;22.56;65.21
71889;BME280;59762;49.998;14.858;2023-07-16T12:15:46;97485.53;;;22.44;65.41
71889;BME280;59762;49.998;14.858;2023-07-16T12:18:11;97486.75;;;22.48;65.86
71889;BME280;59762;49.998;14.858;2023-07-16T12:20:37;97479.78;;;22.52;66.00
71889;BME280;59762;49.998;14.858;2023-07-16T12:23:02;97480.69;;;22.75;66.42
71889;BME280;59762;49.998;14.858;2023-07-16T12:25:28;97484.03;;;22.48;65.59
71889;BME280;59762;49.998;14.858;2023-07-16T12:27:54;97487.72;;;22.53;65.37
71889;BME280;59762;49.998;14.858;2023-07-16T12:30:20;97486.34;;;22.62;66.91
71889;BME280;59762;49.998;14.858;2023-07-16T12:32:46;97480.25;;;22.49;64.56
71889;BME280;59762;49.998;14.858;2023-07-16T12:35:11;97499.28;;;22.78;64.08
71889;BME280;59762;49.998;14.858;2023-07-16T12:37:37;97493.81;;;23.31;63.39
71889;BME280;59762;49.998;14.858;2023-07-16T12:40:03;97494.44;;;23.33;61.95
71889;BME280;59762;49.998;14.858;2023-07-16T12:42:29;97493.47;;;23.27;60.52
71889;BME280;59762;49.998;14.858;2023-07-16T12:44:54;97491.13;;;23.54;61.16
71889;BME280;59762;49.998;14.858;2023-07-16T12:47:20;97496.44;;;23.37;61.14
71889;BME280;59762;49.998;14.858;2023-07-16T12:49:45;97485.56;;;23.60;60.90
71889;BME280;59762;49.998;14.858;2023-07-16T12:52:11;97482.81;;;23.37;59.29
71889;BME280;59762;49.998;14.858;2023-07-16T12:54:37;97485.53;;;23.37;59.07
71889;BME280;59762;49.998;14.858;2023-07-16T12:57:03;97490.63;;;23.34;58.83
71889;BME280;59762;49.998;14.858;2023-07-16T12:59:28;97480.69;;;23.39;60.09
71889;BME280;59762;49.998;14.858;2023-07-16T13:01:54;97478.78;;;23.74;59.69
71889;BME280;59762;49.998;14.858;2023-07-16T13:04:20;97486.00;;;23.57;59.40
71889;BME280;59762;49.998;14.858;2023-07-16T13:06:45;97484.69;;;23.71;59.53
71889;BME280;59762;49.998;14.858;2023-07-16T13:09:14;97481.84;;;23.78;58.40